Time;durP1;ratioP1;P1;durP2;ratioP2;P2;SDS_P1;SDS_P2;PMS_P1;PMS_P2;Temp;Humidity;BMP_temperature;BMP_pressure;BME280_temperature;BME280_humidity;BME280_pressure;Samples;Min_cycle;Max_cycle;Signal;HPM_P1;HPM_P2
2021/05/16 00:03:55;;;;;;;2.83;2.53;;;13.80;72.00;;;13.38;56.89;93869.34;5133432;27;20655;-80
2021/05/16 00:06:24;;;;;;;3.92;2.55;;;13.80;72.10;;;13.37;57.07;93878.22;5074088;28;20604;-80
2021/05/16 00:08:50;;;;;;;2.80;2.30;;;13.80;72.10;;;13.35;56.89;93880.28;5096979;27;20226;-80
2021/05/16 00:11:17;;;;;;;2.40;2.20;;;13.80;72.10;;;13.35;56.53;93879.50;5035773;28;20208;-81
2021/05/16 00:13:44;;;;;;;2.42;2.10;;;13.70;72.10;;;13.34;56.94;93885.81;4969727;28;20225;-84
2021/05/16 00:16:11;;;;;;;2.38;2.20;;;13.80;72.20;;;13.30;57.22;93898.63;4869699;29;20214;-80
2021/05/16 00:18:37;;;;;;;1.92;1.80;;;13.80;72.40;;;13.25;57.25;93894.06;4795925;29;20695;-80
2021/05/16 00:21:04;;;;;;;1.83;1.73;;;13.80;72.20;;;13.24;56.73;93896.94;4703307;30;20368;-80
2021/05/16 00:25:37;;;;;;;2.15;1.95;;;13.70;72.10;;;13.13;57.02;93895.94;5142544;27;21157;-81
2021/05/16 00:28:05;;;;;;;2.47;2.10;;;13.70;72.00;;;13.12;56.87;93896.97;5089166;28;20600;-80
2021/05/16 00:30:33;;;;;;;2.33;2.05;;;13.60;72.20;;;13.08;57.45;93901.09;5092733;28;20212;-80
2021/05/16 00:33:00;;;;;;;1.90;1.80;;;13.60;72.30;;;13.03;57.58;93901.78;5107636;28;20215;-81
2021/05/16 00:35:31;;;;;;;2.03;1.70;;;13.60;72.40;;;13.01;57.62;93910.94;5063722;28;20253;-81
2021/05/16 00:38:01;;;;;;;2.92;1.90;;;13.60;72.60;;;12.98;57.76;93909.59;4967615;28;20239;-81
2021/05/16 00:40:30;;;;;;;2.15;1.90;;;13.50;72.60;;;12.95;58.16;93916.13;4924557;28;20212;-81
2021/05/16 00:42:57;;;;;;;2.78;1.75;;;13.40;72.70;;;12.89;58.17;93921.47;4730819;29;20715;-80
2021/05/16 00:47:04;;;;;;;3.78;1.50;;;13.50;73.00;;;12.64;60.38;93917.28;5149953;27;20643;-81
2021/05/16 00:49:31;;;;;;;1.77;1.67;;;13.40;73.80;;;12.49;60.43;93915.91;5091479;28;20287;-81
2021/05/16 00:51:59;;;;;;;1.50;1.40;;;13.30;73.90;;;12.35;60.71;93905.81;5086081;28;20255;-80
2021/05/16 00:54:27;;;;;;;2.38;1.75;;;13.20;74.30;;;12.27;61.07;93920.13;5067796;28;20206;-81
2021/05/16 00:56:53;;;;;;;2.42;1.50;;;13.10;74.60;;;12.18;60.93;93922.25;4992262;28;20213;-80
2021/05/16 00:59:20;;;;;;;1.40;1.30;;;13.00;74.70;;;12.12;60.81;93910.84;4926713;28;20231;-81
2021/05/16 01:01:49;;;;;;;1.60;1.50;;;12.90;74.90;;;12.07;61.50;93920.41;4874210;29;20610;-80
2021/05/16 01:04:16;;;;;;;1.52;1.42;;;12.90;75.20;;;12.00;61.29;93913.44;4692972;29;20237;-79
2021/05/16 01:08:31;;;;;;;2.22;1.55;;;12.80;75.30;;;11.93;62.10;93911.91;5123728;27;20580;-80
2021/05/16 01:10:58;;;;;;;1.60;1.50;;;12.70;75.70;;;11.88;62.52;93915.19;5114388;27;20192;-80
2021/05/16 01:13:26;;;;;;;1.20;1.20;;;12.60;75.90;;;11.87;62.06;93918.06;5108940;28;20830;-81
2021/05/16 01:15:53;;;;;;;2.03;1.50;;;12.60;76.00;;;11.87;61.43;93918.06;5053917;28;20229;-80
2021/05/16 01:18:20;;;;;;;1.40;1.30;;;12.50;76.20;;;11.80;62.69;93916.34;5013436;28;20320;-82
2021/05/16 01:20:50;;;;;;;1.30;1.20;;;12.40;76.20;;;11.80;61.70;93918.97;5000296;28;20213;-81
2021/05/16 01:23:30;;;;;;;1.40;1.30;;;12.40;76.30;;;11.79;62.00;93912.09;4827749;29;20259;-81
2021/05/16 01:26:02;;;;;;;1.20;1.15;;;12.40;76.30;;;11.78;61.75;93915.75;4675503;30;20705;-81
2021/05/16 01:30:13;;;;;;;1.85;1.40;;;12.30;76.20;;;11.71;62.41;93912.41;5132387;27;20966;-80
2021/05/16 01:32:40;;;;;;;3.08;1.50;;;12.40;76.30;;;11.73;62.33;93917.44;5074224;28;20413;-80
2021/05/16 01:35:08;;;;;;;1.83;1.30;;;12.40;76.30;;;11.74;62.24;93911.16;5090484;28;20262;-79
2021/05/16 01:37:35;;;;;;;1.50;1.40;;;12.30;76.20;;;11.74;61.88;93906.69;5091370;28;20653;-80
2021/05/16 01:40:05;;;;;;;1.20;1.10;;;12.30;76.20;;;11.74;61.25;93906.69;5026674;28;20649;-79
2021/05/16 01:42:32;;;;;;;1.30;1.20;;;12.30;76.20;;;11.76;61.62;93909.13;4993862;28;20237;-81
2021/05/16 01:45:04;;;;;;;1.45;1.27;;;12.30;76.20;;;11.75;61.27;93916.19;4938497;28;20218;-81
2021/05/16 01:47:31;;;;;;;3.03;1.05;;;12.30;76.20;;;11.72;61.91;93913.19;4728563;29;20386;-81
2021/05/16 01:51:53;;;;;;;1.52;1.42;;;12.30;76.20;;;11.68;61.82;93923.34;5150459;27;20631;-81
2021/05/16 01:54:21;;;;;;;1.30;1.20;;;12.30;76.20;;;11.67;61.40;93927.03;5128808;27;20684;-81
2021/05/16 01:56:48;;;;;;;2.60;1.30;;;12.20;76.20;;;11.66;61.79;93928.03;5106363;28;20216;-83
2021/05/16 01:59:16;;;;;;;1.30;1.20;;;12.20;76.10;;;11.66;61.54;93928.84;5121837;27;20232;-82
2021/05/16 02:01:43;;;;;;;1.20;1.20;;;12.30;76.20;;;11.66;61.50;93934.09;5052202;28;20282;-81
2021/05/16 02:04:11;;;;;;;1.00;1.00;;;12.30;76.20;;;11.66;61.72;93939.34;5045044;28;20231;-81
2021/05/16 02:06:40;;;;;;;1.23;1.20;;;12.20;76.10;;;11.66;61.62;93941.97;4977951;28;20204;-82
2021/05/16 02:09:07;;;;;;;1.30;1.20;;;12.20;76.10;;;11.65;62.24;93936.94;4791942;29;20339;-81
2021/05/16 02:13:42;;;;;;;1.25;1.15;;;12.20;76.10;;;11.60;62.17;93934.19;5136924;27;20662;-81
2021/05/16 02:16:13;;;;;;;1.10;1.10;;;12.20;76.50;;;11.62;62.20;93938.19;5068410;28;20619;-82
2021/05/16 02:18:43;;;;;;;1.23;1.20;;;12.20;76.10;;;11.64;62.11;93938.75;5127350;27;20217;-81
2021/05/16 02:21:14;;;;;;;1.10;1.10;;;12.20;76.10;;;11.68;61.80;93939.09;5123632;27;20221;-81
2021/05/16 02:23:46;;;;;;;1.10;1.10;;;12.20;76.10;;;11.69;62.41;93936.28;5087689;28;20229;-81
2021/05/16 02:26:17;;;;;;;0.93;0.93;;;12.20;76.10;;;11.69;61.69;93941.53;5019393;28;20577;-82
2021/05/16 02:28:44;;;;;;;1.20;1.20;;;12.30;76.20;;;11.73;61.55;93938.44;4897602;28;20282;-82
2021/05/16 02:31:18;;;;;;;1.10;1.00;;;12.20;76.20;;;11.70;61.94;93939.69;4700838;29;20223;-81
2021/05/16 02:33:51;;;;;;;1.23;1.13;;;12.30;76.20;;;11.73;62.06;93948.94;5134108;27;20395;-81
2021/05/16 02:36:18;;;;;;;1.75;1.10;;;12.30;76.20;;;11.71;61.93;93943.94;5108051;28;20207;-81
2021/05/16 02:38:45;;;;;;;1.20;1.20;;;12.30;76.20;;;11.71;61.69;93946.56;5100672;28;20634;-81
2021/05/16 02:41:12;;;;;;;0.90;0.90;;;12.30;76.20;;;11.71;62.21;93946.56;5052975;28;20211;-82
2021/05/16 02:43:40;;;;;;;1.00;1.00;;;12.30;76.20;;;11.72;61.95;93948.16;4994480;28;20289;-81
2021/05/16 02:46:08;;;;;;;0.85;0.85;;;12.30;76.20;;;11.74;61.49;93951.34;4960902;28;20266;-82
2021/05/16 02:48:35;;;;;;;1.02;0.93;;;12.40;76.30;;;11.76;61.12;93953.78;4918564;28;20231;-82
2021/05/16 02:51:05;;;;;;;1.42;0.90;;;12.30;76.20;;;11.76;61.65;93967.69;4812958;29;20208;-82
2021/05/16 02:56:03;;;;;;;1.00;1.00;;;12.30;76.20;;;11.73;61.38;93960.28;5150858;27;20644;-81
2021/05/16 02:58:32;;;;;;;1.98;0.90;;;12.30;76.20;;;11.68;62.07;93963.56;5074701;28;20248;-82
2021/05/16 03:01:00;;;;;;;1.02;0.80;;;12.30;76.20;;;11.64;61.79;93959.75;5068132;28;20211;-81
2021/05/16 03:03:35;;;;;;;0.90;0.90;;;12.30;76.20;;;11.61;61.83;93967.28;5072429;28;20233;-81
2021/05/16 03:06:07;;;;;;;0.80;0.80;;;12.30;76.20;;;11.54;61.81;93970.00;4940616;29;20229;-80
2021/05/16 03:08:35;;;;;;;0.70;0.70;;;12.20;76.10;;;11.48;62.32;93955.13;4883253;29;20235;-81
2021/05/16 03:11:02;;;;;;;0.80;0.80;;;12.20;76.10;;;11.44;62.25;93962.66;4785624;29;20223;-81
2021/05/16 03:13:29;;;;;;;0.88;0.88;;;12.10;76.10;;;11.39;61.97;93962.50;4577472;30;20248;-81
2021/05/16 03:16:06;;;;;;;0.80;0.80;;;12.20;76.10;;;11.33;62.19;93972.06;5150882;27;20837;-81
2021/05/16 03:18:34;;;;;;;0.80;0.80;;;12.00;76.00;;;11.27;62.41;93966.91;5077914;28;20258;-81
2021/05/16 03:21:01;;;;;;;0.80;0.80;;;11.90;76.00;;;11.22;62.46;93967.53;5074060;28;20218;-81
2021/05/16 03:23:29;;;;;;;1.00;1.00;;;12.00;76.40;;;11.20;62.25;93962.53;5080751;28;20228;-81
2021/05/16 03:26:00;;;;;;;0.85;0.85;;;11.90;76.10;;;11.17;62.23;93962.94;5019175;28;20375;-81
2021/05/16 03:28:31;;;;;;;1.02;1.00;;;11.80;75.90;;;11.16;62.05;93966.59;4930693;28;20280;-81
2021/05/16 03:30:58;;;;;;;1.00;1.00;;;11.80;76.10;;;11.11;62.46;93968.25;4865259;29;20676;-80
2021/05/16 03:33:26;;;;;;;0.90;0.90;;;11.80;76.10;;;11.08;62.15;93968.72;4781943;29;20285;-84
2021/05/16 03:38:29;;;;;;;1.00;1.00;;;11.70;76.50;;;10.94;63.01;93960.97;5127525;27;20673;-81
2021/05/16 03:40:56;;;;;;;1.00;1.00;;;11.70;76.70;;;10.92;63.02;93968.25;5091131;27;20200;-80
2021/05/16 03:43:23;;;;;;;1.02;0.80;;;11.60;76.50;;;10.86;62.87;93958.63;5056296;28;20227;-80
2021/05/16 03:45:50;;;;;;;0.88;0.88;;;11.60;76.40;;;10.80;62.88;93956.88;5036294;28;20202;-81
2021/05/16 03:48:16;;;;;;;0.90;0.90;;;11.50;76.50;;;10.77;62.76;93965.19;4996902;28;20318;-80
2021/05/16 03:50:43;;;;;;;0.98;0.98;;;11.50;76.50;;;10.71;63.23;93953.72;4932877;28;20592;-80
2021/05/16 03:53:09;;;;;;;0.90;0.90;;;11.50;76.50;;;10.67;63.32;93965.69;4763734;29;20268;-81
2021/05/16 03:55:36;;;;;;;0.90;0.90;;;11.40;76.70;;;10.63;62.96;93965.31;4612966;30;20232;-80
2021/05/16 04:00:40;;;;;;;0.90;0.90;;;11.30;76.80;;;10.56;63.46;93965.34;5148756;27;20554;-80
2021/05/16 04:03:06;;;;;;;0.88;0.88;;;11.20;76.80;;;10.51;63.61;93965.19;5127791;27;20665;-81
2021/05/16 04:05:34;;;;;;;1.00;1.00;;;11.20;77.00;;;10.48;63.48;93963.00;5108651;28;20214;-80
2021/05/16 04:08:00;;;;;;;0.90;0.90;;;11.20;76.90;;;10.48;63.59;93973.47;5065979;28;20229;-81
2021/05/16 04:10:27;;;;;;;1.00;1.00;;;11.10;77.00;;;10.46;64.35;93978.16;5069890;28;20205;-81
2021/05/16 04:12:53;;;;;;;1.05;1.00;;;11.10;77.30;;;10.44;64.54;93974.16;5009251;28;20233;-81
2021/05/16 04:15:20;;;;;;;1.00;1.00;;;11.10;77.50;;;10.43;64.15;93970.69;4910290;28;20241;-82
2021/05/16 04:17:46;;;;;;;0.98;0.98;;;11.10;77.60;;;10.44;64.98;93977.56;4659445;30;20241;-82
2021/05/16 04:22:37;;;;;;;1.00;1.00;;;11.10;77.90;;;10.49;64.36;93985.56;5145602;27;20651;-81
2021/05/16 04:25:04;;;;;;;0.98;0.98;;;11.00;77.90;;;10.54;64.29;93977.84;5108303;28;20202;-81
2021/05/16 04:27:30;;;;;;;0.90;0.90;;;11.10;78.10;;;10.60;64.38;93980.66;5078257;28;21602;-81
2021/05/16 04:29:58;;;;;;;1.30;1.02;;;11.10;78.00;;;10.62;63.80;93971.56;5045894;28;20284;-81
2021/05/16 04:32:24;;;;;;;0.95;0.95;;;11.10;78.00;;;10.71;63.86;93982.56;5046688;28;20714;-80
2021/05/16 04:34:51;;;;;;;1.58;1.00;;;11.10;78.00;;;10.76;63.87;93987.19;4991716;28;20676;-80
2021/05/16 04:37:17;;;;;;;1.30;1.20;;;11.20;78.00;;;10.80;63.69;93988.34;4974271;28;20260;-79
2021/05/16 04:39:44;;;;;;;0.90;0.90;;;11.20;77.90;;;10.83;63.53;93980.06;4894189;28;20686;-79
2021/05/16 04:45:05;;;;;;;1.02;1.02;;;11.20;77.90;;;10.87;63.33;93984.63;5150445;27;20650;-79
2021/05/16 04:47:32;;;;;;;1.15;1.05;;;11.30;77.80;;;10.88;63.37;93985.44;5108599;28;20296;-79
2021/05/16 04:49:58;;;;;;;1.00;1.00;;;11.30;77.80;;;10.88;63.13;93988.06;5074566;28;20202;-80
2021/05/16 04:52:25;;;;;;;1.20;1.20;;;11.40;77.70;;;10.89;63.45;93989.69;5035136;28;20689;-79
2021/05/16 04:54:51;;;;;;;1.17;1.10;;;11.40;77.80;;;10.88;63.56;93996.72;4967828;28;20208;-80
2021/05/16 04:57:18;;;;;;;1.23;1.00;;;11.40;77.80;;;10.92;63.15;93996.31;4921032;28;20214;-80
2021/05/16 04:59:48;;;;;;;1.00;1.00;;;11.40;77.70;;;10.94;62.99;93999.53;4805535;29;20250;-80
2021/05/16 05:02:16;;;;;;;1.27;1.17;;;11.40;77.50;;;10.96;62.91;94003.53;4555847;30;20236;-80
2021/05/16 05:06:30;;;;;;;1.38;1.27;;;11.40;77.50;;;10.96;63.10;94016.66;5145428;27;20630;-78
2021/05/16 05:09:00;;;;;;;1.77;1.20;;;11.40;77.40;;;10.96;63.19;94010.59;5061995;28;20580;-79
2021/05/16 05:11:26;;;;;;;1.27;1.20;;;11.40;77.50;;;10.93;63.05;94005.78;5085517;28;20554;-79
2021/05/16 05:13:53;;;;;;;1.20;1.10;;;11.40;77.40;;;10.91;62.82;94016.47;5018330;28;20233;-79
2021/05/16 05:16:20;;;;;;;1.35;1.20;;;11.40;77.30;;;10.92;62.53;94004.19;4960897;28;20199;-79
2021/05/16 05:18:46;;;;;;;1.88;1.25;;;11.50;77.20;;;10.88;62.77;94012.47;4882331;29;20255;-79
2021/05/16 05:21:13;;;;;;;1.42;1.20;;;11.40;77.10;;;10.87;62.56;94018.72;4804482;29;20233;-79
2021/05/16 05:23:40;;;;;;;1.45;1.20;;;11.50;77.10;;;10.83;62.84;94017.56;4619055;30;20257;-80
2021/05/16 05:28:11;;;;;;;1.27;0.98;;;11.50;77.10;;;10.87;62.59;94012.69;5114567;27;20593;-78
2021/05/16 05:30:38;;;;;;;1.95;1.27;;;11.40;77.10;;;10.89;62.67;94015.91;5063657;28;20302;-79
2021/05/16 05:33:05;;;;;;;1.27;1.17;;;11.50;77.10;;;10.94;62.41;94007.41;5073357;28;20233;-79
2021/05/16 05:35:32;;;;;;;2.05;1.40;;;11.40;77.10;;;10.99;62.48;94025.91;5051141;28;20202;-80
2021/05/16 05:37:58;;;;;;;1.15;1.00;;;11.40;77.10;;;11.09;62.20;94015.72;5028660;28;20220;-79
2021/05/16 05:40:25;;;;;;;1.23;1.13;;;11.50;77.30;;;11.15;62.29;94024.56;4937414;28;20221;-79
2021/05/16 05:42:52;;;;;;;1.30;1.20;;;11.50;77.40;;;11.21;62.51;94015.81;4760564;29;20279;-80
2021/05/16 05:45:19;;;;;;;1.73;1.30;;;11.60;77.50;;;11.29;62.24;94012.91;4549314;30;20265;-80
2021/05/16 05:50:10;;;;;;;1.20;1.10;;;11.60;77.50;;;11.39;62.21;94020.28;5122793;27;20323;-80
2021/05/16 05:52:39;;;;;;;1.38;1.20;;;11.70;77.30;;;11.43;62.02;94029.31;5064833;28;20246;-81
2021/05/16 05:55:07;;;;;;;1.58;1.38;;;11.70;77.20;;;11.45;61.92;94024.66;5055181;28;20217;-80
2021/05/16 05:57:33;;;;;;;1.10;1.10;;;11.80;77.10;;;11.51;61.74;94022.94;5088491;28;20239;-81
2021/05/16 06:00:02;;;;;;;2.53;1.20;;;11.80;77.20;;;11.56;62.05;94038.88;5046009;28;20670;-80
2021/05/16 06:02:31;;;;;;;1.20;1.10;;;11.90;77.40;;;11.66;61.75;94030.47;5033111;28;20235;-80
2021/05/16 06:04:58;;;;;;;1.42;1.20;;;12.00;77.40;;;11.80;61.63;94037.19;4937324;28;20218;-80
2021/05/16 06:07:24;;;;;;;1.45;1.30;;;12.00;77.50;;;11.98;61.67;94032.94;4837852;29;20247;-80
2021/05/16 06:12:22;;;;;;;1.48;1.20;;;12.10;77.60;;;12.32;60.98;94025.41;5146883;27;20728;-79
2021/05/16 06:14:53;;;;;;;1.02;1.02;;;12.30;77.50;;;12.47;60.63;94025.81;5079889;28;20198;-80
2021/05/16 06:17:20;;;;;;;1.10;1.00;;;12.50;77.40;;;12.61;60.09;94022.97;5063496;28;20246;-80
2021/05/16 06:19:47;;;;;;;1.50;1.40;;;12.60;77.00;;;12.64;59.63;94012.75;5012410;28;20625;-80
2021/05/16 06:22:14;;;;;;;1.45;1.20;;;12.80;76.60;;;12.65;59.57;94009.13;4971682;28;20315;-81
2021/05/16 06:24:42;;;;;;;1.02;1.00;;;12.80;76.60;;;12.76;59.88;94025.16;4863214;29;20210;-80
2021/05/16 06:27:09;;;;;;;1.65;1.10;;;13.00;76.70;;;12.90;59.71;94020.47;4762233;29;20217;-80
2021/05/16 06:29:35;;;;;;;1.70;1.20;;;13.00;76.70;;;13.03;59.74;94020.25;4637130;30;20278;-80
2021/05/16 06:34:35;;;;;;;2.97;1.38;;;13.10;76.80;;;13.17;58.59;94017.38;5122532;27;21156;-80
2021/05/16 06:37:04;;;;;;;1.90;1.20;;;13.30;75.90;;;13.19;58.70;94007.44;5096561;28;20200;-79
2021/05/16 06:39:32;;;;;;;1.60;1.20;;;13.30;75.80;;;13.22;58.73;94001.69;5082791;28;20216;-79
2021/05/16 06:41:59;;;;;;;2.25;1.10;;;13.40;75.60;;;13.24;58.72;94023.34;5052467;28;20214;-81
2021/05/16 06:44:27;;;;;;;1.48;1.38;;;13.50;75.50;;;13.22;58.31;94005.13;5000248;28;20654;-80
2021/05/16 06:46:54;;;;;;;1.88;1.30;;;13.50;75.20;;;13.22;58.17;93996.41;4954179;28;20241;-80
2021/05/16 06:49:21;;;;;;;1.70;1.25;;;13.60;75.10;;;13.25;57.84;93998.59;4899421;28;20245;-81
2021/05/16 06:51:47;;;;;;;1.75;1.20;;;13.50;74.90;;;13.22;56.54;94012.22;4752436;29;20220;-80
2021/05/16 06:56:16;;;;;;;1.55;1.20;;;13.60;73.90;;;13.19;56.69;94015.31;5150492;27;20636;-79
2021/05/16 06:58:44;;;;;;;2.30;1.30;;;13.50;73.80;;;13.21;56.48;94014.06;5128533;27;20215;-79
2021/05/16 07:01:11;;;;;;;2.20;1.40;;;13.50;73.60;;;13.24;54.83;94016.25;5068996;28;20245;-79
2021/05/16 07:03:40;;;;;;;2.38;1.88;;;13.50;72.70;;;13.33;56.32;94011.44;5042555;28;20226;-79
2021/05/16 07:06:07;;;;;;;1.42;1.20;;;13.50;73.50;;;13.39;55.80;94036.06;5017813;28;20215;-79
2021/05/16 07:08:34;;;;;;;3.15;1.50;;;13.60;73.30;;;13.52;55.62;94006.03;4969727;28;20238;-79
2021/05/16 07:11:02;;;;;;;2.45;1.35;;;13.70;73.80;;;13.68;56.58;94002.66;4835118;29;20216;-79
2021/05/16 07:13:29;;;;;;;1.40;1.30;;;13.70;73.90;;;13.79;56.10;94008.94;4729932;29;20249;-80
2021/05/16 07:18:13;;;;;;;1.95;1.30;;;13.80;73.70;;;13.89;54.45;94021.50;5140024;27;20679;-79
2021/05/16 07:20:40;;;;;;;3.60;1.40;;;14.00;72.80;;;13.98;55.34;94017.47;5067818;28;20201;-79
2021/05/16 07:23:06;;;;;;;1.40;1.30;;;14.00;73.30;;;14.13;55.00;94022.22;5065876;28;20611;-80
2021/05/16 07:25:33;;;;;;;1.92;1.17;;;14.10;73.10;;;14.29;54.68;94028.56;5056336;28;20199;-79
2021/05/16 07:28:00;;;;;;;2.13;1.40;;;14.20;72.90;;;14.40;54.71;94014.56;4983624;28;20315;-80
2021/05/16 07:30:33;;;;;;;1.55;1.23;;;14.30;73.00;;;14.55;54.79;94018.50;4887730;29;20297;-80
2021/05/16 07:33:01;;;;;;;2.20;1.40;;;14.50;73.10;;;14.70;54.59;94010.06;4807161;29;20606;-79
2021/05/16 07:35:28;;;;;;;3.10;1.65;;;14.50;72.80;;;14.86;54.14;94024.28;4468515;31;20227;-80
2021/05/16 07:39:24;;;;;;;2.53;1.40;;;14.60;72.80;;;15.00;51.62;94015.00;5129763;27;20565;-80
2021/05/16 07:41:50;;;;;;;3.28;1.20;;;14.90;71.70;;;15.09;52.37;94022.50;5080883;28;20198;-79
2021/05/16 07:44:17;;;;;;;2.80;1.45;;;15.00;71.40;;;15.19;51.61;94022.66;5028070;28;20275;-79
2021/05/16 07:46:44;;;;;;;2.33;1.38;;;15.10;70.80;;;15.21;50.22;94017.94;5013363;28;20208;-80
2021/05/16 07:49:10;;;;;;;2.55;1.20;;;15.20;70.30;;;15.22;50.79;94014.22;5014429;28;20223;-80
2021/05/16 07:51:37;;;;;;;2.58;1.40;;;15.30;70.10;;;15.24;51.62;94009.53;4990046;28;20264;-78
2021/05/16 07:54:04;;;;;;;3.78;1.40;;;15.30;70.50;;;15.23;50.62;94010.56;4875118;29;20340;-80
2021/05/16 07:56:30;;;;;;;2.38;1.42;;;15.30;69.70;;;15.22;51.57;94008.94;4727956;29;20228;-80
2021/05/16 08:01:05;;;;;;;2.22;1.25;;;15.30;70.00;;;15.24;51.46;94003.44;5126307;27;20537;-79
2021/05/16 08:03:32;;;;;;;2.67;1.20;;;15.40;69.80;;;15.32;51.56;94014.38;5063580;28;20234;-79
2021/05/16 08:05:58;;;;;;;2.92;1.30;;;15.40;70.00;;;15.40;51.15;94025.59;5029805;28;20256;-80
2021/05/16 08:08:25;;;;;;;2.05;1.30;;;15.50;70.00;;;15.45;50.85;94013.25;4963226;28;20225;-79
2021/05/16 08:10:52;;;;;;;2.00;1.20;;;15.50;69.80;;;15.57;51.81;94018.41;4933633;28;20216;-79
2021/05/16 08:13:20;;;;;;;2.65;1.30;;;15.60;70.20;;;15.72;50.64;94024.94;4879839;29;20245;-79
2021/05/16 08:15:47;;;;;;;3.20;1.30;;;15.60;70.10;;;15.78;50.46;94016.84;4815220;29;20226;-79
2021/05/16 08:18:14;;;;;;;2.65;1.20;;;15.70;69.70;;;15.83;50.46;94024.84;4616964;30;20243;-80
2021/05/16 08:23:02;;;;;;;3.83;1.40;;;15.80;69.60;;;15.83;49.81;94024.84;5130168;27;21145;-79
2021/05/16 08:25:31;;;;;;;3.20;1.20;;;15.90;69.80;;;15.88;49.88;94023.31;5094209;28;20217;-79
2021/05/16 08:27:58;;;;;;;2.10;1.20;;;15.90;68.80;;;15.97;50.19;94021.84;5065982;28;20224;-79
2021/05/16 08:30:25;;;;;;;2.65;1.40;;;15.90;68.90;;;15.99;49.00;94033.75;5040129;28;20229;-79
2021/05/16 08:32:52;;;;;;;2.05;1.30;;;16.00;68.20;;;15.99;49.33;94023.19;4936317;28;20300;-79
2021/05/16 08:35:19;;;;;;;4.07;1.45;;;16.00;68.10;;;16.07;49.87;94019.28;4857301;29;20210;-80
2021/05/16 08:37:48;;;;;;;2.67;1.20;;;16.00;69.50;;;16.19;49.49;94037.69;4741525;29;20700;-79
2021/05/16 08:40:16;;;;;;;3.33;1.48;;;16.20;68.70;;;16.24;48.67;94029.78;4544443;30;20585;-80
2021/05/16 08:44:12;;;;;;;4.03;1.20;;;16.20;68.30;;;16.26;47.84;94024.22;5112260;27;20657;-79
2021/05/16 08:46:41;;;;;;;3.58;1.40;;;16.30;67.40;;;16.35;48.91;94038.63;5098052;28;20210;-80
2021/05/16 08:49:08;;;;;;;1.95;1.40;;;16.30;67.90;;;16.45;49.17;94030.81;5110676;28;20278;-79
2021/05/16 08:51:35;;;;;;;1.88;1.10;;;16.30;68.00;;;16.53;48.76;94037.47;5040644;28;20209;-80
2021/05/16 08:54:01;;;;;;;3.42;1.40;;;16.50;68.00;;;16.45;46.87;94045.88;4922715;28;20234;-80
2021/05/16 08:56:28;;;;;;;2.47;1.40;;;16.50;66.60;;;16.36;47.15;94037.59;4783382;29;20219;-80
2021/05/16 08:58:54;;;;;;;2.83;1.27;;;16.50;66.70;;;16.35;46.93;94035.97;4664532;30;20233;-80
2021/05/16 09:01:24;;;;;;;3.15;1.20;;;16.50;66.40;;;16.44;48.20;94031.84;4492905;30;21627;-81
2021/05/16 09:05:54;;;;;;;3.10;1.30;;;16.50;67.10;;;16.58;47.58;94042.03;5140152;27;20568;-79
2021/05/16 09:08:23;;;;;;;3.00;1.33;;;16.60;67.00;;;16.62;46.36;94043.94;5089907;28;20232;-79
2021/05/16 09:10:57;;;;;;;2.75;1.27;;;16.70;66.10;;;16.62;46.67;94030.69;5077199;28;20209;-79
2021/05/16 09:13:44;;;;;;;3.00;1.30;;;16.60;66.30;;;16.68;47.31;94034.16;5043609;28;20600;-80
2021/05/16 09:16:16;;;;;;;1.27;1.13;;;16.60;66.40;;;16.76;47.34;94030.25;4980306;28;20203;-79
2021/05/16 09:18:51;;;;;;;3.35;1.63;;;16.70;66.90;;;16.92;48.11;94032.03;4930582;28;20637;-82
2021/05/16 09:21:33;;;;;;;4.15;1.50;;;16.70;67.30;;;17.02;46.58;94026.00;4822822;29;20234;-79
2021/05/16 09:23:59;;;;;;;2.55;1.40;;;16.90;66.50;;;17.17;46.56;94021.88;4739756;29;20236;-79
2021/05/16 09:26:51;;;;;;;2.28;1.20;;;17.00;66.40;;;17.18;46.43;94026.91;5146013;27;20920;-79
2021/05/16 09:29:28;;;;;;;3.08;1.40;;;17.00;65.80;;;17.18;45.91;94024.25;5081603;28;20221;-79
2021/05/16 09:31:57;;;;;;;1.90;1.13;;;17.10;65.50;;;17.18;45.77;94037.50;5055896;28;20199;-79
2021/05/16 09:34:25;;;;;;;4.00;1.40;;;17.20;65.70;;;17.22;45.79;94024.53;5032527;28;20700;-79
2021/05/16 09:36:54;;;;;;;4.53;1.85;;;17.20;65.70;;;17.40;45.31;94049.84;4977142;28;20366;-79
2021/05/16 09:39:28;;;;;;;3.85;1.52;;;17.20;65.10;;;17.53;45.26;94022.09;4835549;29;20297;-79
2021/05/16 09:42:03;;;;;;;2.10;1.20;;;17.30;65.10;;;17.68;46.33;94024.00;4706242;30;20314;-80
2021/05/16 09:45:18;;;;;;;2.75;1.00;;;17.40;66.00;;;17.83;45.21;94015.31;5145520;27;20533;-79
2021/05/16 09:47:46;;;;;;;1.67;1.25;;;17.50;65.20;;;17.92;46.13;94019.88;5089336;28;20285;-79
2021/05/16 09:50:15;;;;;;;2.67;1.40;;;17.60;65.70;;;17.99;44.10;94022.31;5050095;28;20349;-81
2021/05/16 09:52:58;;;;;;;2.88;1.45;;;17.70;64.50;;;18.06;44.21;94028.16;5023690;28;20618;-79
2021/05/16 09:55:24;;;;;;;2.45;1.40;;;17.80;64.60;;;18.14;43.18;94021.56;4985154;28;20194;-79
2021/05/16 09:57:52;;;;;;;2.25;1.30;;;17.90;64.10;;;18.27;44.07;94028.22;4948770;28;20234;-85
2021/05/16 10:00:19;;;;;;;3.63;1.50;;;18.00;64.70;;;18.53;44.49;94023.78;4842802;29;20262;-79
2021/05/16 10:02:46;;;;;;;4.45;1.75;;;18.10;65.00;;;18.73;42.81;94015.00;4677403;30;20235;-79
2021/05/16 10:07:13;;;;;;;2.47;1.50;;;18.30;63.60;;;18.88;41.64;94021.41;5129408;27;20960;-79
2021/05/16 10:09:40;;;;;;;3.13;1.30;;;18.50;63.40;;;18.98;42.91;94015.31;5117527;27;20192;-80
2021/05/16 10:12:09;;;;;;;3.67;1.48;;;18.70;63.60;;;19.08;43.43;94022.47;5130456;27;20211;-80
2021/05/16 10:14:42;;;;;;;3.65;1.38;;;18.80;63.90;;;19.18;43.02;94030.47;5093550;28;20202;-80
2021/05/16 10:17:10;;;;;;;3.00;1.55;;;18.90;63.50;;;19.21;43.80;94019.28;5022024;28;20216;-79
2021/05/16 10:19:41;;;;;;;2.38;1.33;;;18.90;63.90;;;19.27;44.19;94028.84;4969914;28;20679;-78
2021/05/16 10:22:09;;;;;;;2.80;1.48;;;19.00;64.00;;;19.30;42.50;94017.69;4897368;29;20226;-79
2021/05/16 10:24:49;;;;;;;1.35;1.20;;;19.10;62.80;;;19.35;43.69;94019.53;4737807;29;20562;-79
2021/05/16 10:27:33;;;;;;;2.85;1.30;;;19.10;63.40;;;19.38;41.76;94034.16;5145826;27;20319;-80
2021/05/16 10:30:08;;;;;;;4.53;1.63;;;19.20;62.90;;;19.38;41.47;94024.31;5087297;28;20678;-80
2021/05/16 10:32:51;;;;;;;2.42;1.20;;;19.30;62.90;;;19.34;42.02;94020.59;5086086;28;20669;-79
2021/05/16 10:35:18;;;;;;;1.75;1.20;;;19.30;62.90;;;19.38;42.23;94024.31;5047649;28;20211;-80
2021/05/16 10:37:56;;;;;;;2.70;1.30;;;19.30;62.90;;;19.39;42.34;94011.81;5011201;28;20251;-79
2021/05/16 10:40:32;;;;;;;2.17;1.30;;;19.30;63.00;;;19.36;41.88;94005.97;4948513;28;20204;-80
2021/05/16 10:43:24;;;;;;;2.92;1.58;;;19.30;63.00;;;19.46;41.82;94015.00;4819378;29;20251;-79
2021/05/16 10:49:27;;;;;;;3.13;1.30;;;19.40;62.50;;;19.60;41.54;94009.91;5134170;27;20673;-78
2021/05/16 10:51:54;;;;;;;2.03;1.10;;;19.50;63.10;;;19.63;41.95;94004.06;5057366;28;20202;-79
2021/05/16 10:54:33;;;;;;;2.17;1.20;;;19.50;62.40;;;19.55;40.50;94005.38;5083989;28;20329;-79
2021/05/16 10:57:13;;;;;;;2.90;1.30;;;19.60;61.50;;;19.39;40.15;94025.13;4992583;28;20272;-79
2021/05/16 10:59:41;;;;;;;2.90;0.90;;;19.60;61.40;;;19.30;41.31;94003.59;4971053;28;20227;-79
2021/05/16 11:02:08;;;;;;;2.00;1.08;;;19.50;61.30;;;19.30;41.08;93993.75;4873751;29;20207;-79
2021/05/16 11:04:50;;;;;;;2.08;1.27;;;19.40;61.40;;;19.37;40.68;93985.47;4792993;29;20245;-79
2021/05/16 11:10:22;;;;;;;1.40;1.10;;;19.40;62.30;;;19.41;40.53;93988.41;5150273;27;20836;-78
2021/05/16 11:12:50;;;;;;;2.45;1.10;;;19.40;61.50;;;19.40;40.53;93976.19;5108410;28;20221;-79
2021/05/16 11:15:27;;;;;;;2.47;1.00;;;19.40;60.90;;;19.48;41.28;93968.44;5076599;28;20210;-79
2021/05/16 11:17:53;;;;;;;3.90;1.20;;;19.40;61.70;;;19.52;40.06;93984.66;5108265;28;20686;-79
2021/05/16 11:20:21;;;;;;;1.58;1.13;;;19.50;60.70;;;19.49;40.02;93975.38;5076988;28;20206;-79
2021/05/16 11:22:47;;;;;;;3.20;1.10;;;19.40;60.80;;;19.50;39.82;93968.19;5061149;28;20231;-80
2021/05/16 11:25:28;;;;;;;2.72;1.20;;;19.50;60.80;;;19.54;39.99;93965.78;4903614;28;20298;-79
2021/05/16 11:27:58;;;;;;;1.48;1.10;;;19.50;60.90;;;19.61;39.12;93968.94;4679914;30;20238;-79